createdAt,value
2023-04-04T00:00:53.786Z,95042.06
2023-04-04T00:03:21.832Z,95040.47
2023-04-04T00:05:51.688Z,95034.09
2023-04-04T00:08:19.870Z,95036.50
2023-04-04T00:10:47.780Z,95038.84
2023-04-04T00:13:17.289Z,95040.06
2023-04-04T00:15:45.316Z,95037.03
2023-04-04T00:18:13.276Z,95038.00
2023-04-04T00:20:41.380Z,95036.81
2023-04-04T00:23:11.134Z,95033.41
2023-04-04T00:25:39.385Z,95039.78
2023-04-04T00:28:07.379Z,95042.75
2023-04-04T00:30:37.343Z,95033.22
2023-04-04T00:33:06.537Z,95043.50
2023-04-04T00:35:34.668Z,95039.09
2023-04-04T00:38:02.634Z,95033.22
2023-04-04T00:40:30.761Z,95030.84
2023-04-04T00:43:00.489Z,95024.06
2023-04-04T00:45:28.688Z,95034.81
2023-04-04T00:47:59.813Z,95037.63
2023-04-04T00:50:27.912Z,95031.66
2023-04-04T00:52:56.378Z,95035.03
2023-04-04T00:55:24.488Z,95028.06
2023-04-04T00:57:52.919Z,95029.88
2023-04-04T01:00:21.289Z,95027.66
2023-04-04T01:02:49.294Z,95027.28
2023-04-04T01:05:18.884Z,95024.09
2023-04-04T01:07:47.020Z,95022.44
2023-04-04T01:10:15.066Z,95020.38
2023-04-04T01:12:43.430Z,95022.28
2023-04-04T01:15:12.467Z,95021.06
2023-04-04T01:17:42.015Z,95009.94
2023-04-04T01:20:14.155Z,95018.28
2023-04-04T01:22:52.115Z,95003.94
2023-04-04T01:25:27.209Z,95015.44
2023-04-04T01:27:58.280Z,95017.88
2023-04-04T01:30:30.145Z,95019.47
2023-04-04T01:33:02.408Z,95011.38
2023-04-04T01:35:36.840Z,95018.97
2023-04-04T01:38:16.347Z,95008.19
2023-04-04T01:40:50.553Z,95009.03
2023-04-04T01:43:19.758Z,95008.66
2023-04-04T01:45:47.725Z,95009.00
2023-04-04T01:48:16.768Z,95005.75
2023-04-04T01:50:48.249Z,95008.00
2023-04-04T01:53:17.051Z,95007.75
2023-04-04T01:55:46.678Z,95006.59
2023-04-04T01:58:17.132Z,95009.41
2023-04-04T02:00:45.066Z,95011.16
2023-04-04T02:03:13.108Z,95013.59
2023-04-04T02:05:41.066Z,95010.97
2023-04-04T02:08:10.730Z,95012.97
2023-04-04T02:10:49.024Z,95013.44
2023-04-04T02:13:17.011Z,95007.16
2023-04-04T02:15:45.739Z,95007.53
2023-04-04T02:18:14.380Z,95009.03
2023-04-04T02:20:42.400Z,95005.91
2023-04-04T02:23:10.420Z,95003.22
2023-04-04T02:25:38.367Z,95009.41
2023-04-04T02:28:07.833Z,95007.78
2023-04-04T02:30:35.752Z,95009.88
2023-04-04T02:33:04.484Z,94996.34
2023-04-04T02:35:32.897Z,95005.53
2023-04-04T02:38:00.909Z,95003.22
2023-04-04T02:40:40.024Z,95001.63
2023-04-04T02:43:09.739Z,94990.94
2023-04-04T02:45:38.673Z,95001.66
2023-04-04T02:48:27.518Z,94989.78
2023-04-04T02:50:59.701Z,94997.75
2023-04-04T02:53:27.887Z,95000.09
2023-04-04T02:55:59.718Z,95000.38
2023-04-04T02:58:29.115Z,94993.59
2023-04-04T03:00:57.350Z,94993.53
2023-04-04T03:03:30.339Z,94990.38
2023-04-04T03:06:00.831Z,94994.41
2023-04-04T03:08:29.242Z,94987.84
2023-04-04T03:10:59.846Z,94988.47
2023-04-04T03:13:29.727Z,94994.75
2023-04-04T03:16:04.620Z,94999.59
2023-04-04T03:18:43.413Z,94992.97
2023-04-04T03:21:12.334Z,94991.66
2023-04-04T03:23:40.246Z,94988.41
2023-04-04T03:26:08.168Z,94988.00
2023-04-04T03:28:38.148Z,94992.53
2023-04-04T03:31:06.619Z,94993.22
2023-04-04T03:33:38.290Z,94992.00
2023-04-04T03:36:11.989Z,94985.78
2023-04-04T03:38:40.579Z,94988.59
2023-04-04T03:41:10.123Z,94988.22
2023-04-04T03:43:39.381Z,94991.56
2023-04-04T03:46:08.071Z,94993.06
2023-04-04T03:48:36.163Z,94988.00
2023-04-04T03:51:07.827Z,94984.53
2023-04-04T03:53:36.594Z,94996.59
2023-04-04T03:56:04.978Z,94996.09
2023-04-04T03:58:32.938Z,94998.50
2023-04-04T04:01:02.253Z,94998.78
2023-04-04T04:03:32.161Z,94998.91
2023-04-04T04:06:00.834Z,94999.66
2023-04-04T04:08:28.899Z,94995.34
2023-04-04T04:10:57.658Z,94989.97
2023-04-04T04:13:25.549Z,94991.66
2023-04-04T04:15:55.935Z,94988.41
2023-04-04T04:18:26.141Z,94993.00
2023-04-04T04:20:59.560Z,94994.56
2023-04-04T04:23:28.017Z,94992.53
2023-04-04T04:25:56.057Z,94995.94
2023-04-04T04:28:33.245Z,94996.31
2023-04-04T04:31:07.810Z,94997.03
2023-04-04T04:33:43.189Z,94995.16
2023-04-04T04:36:11.712Z,94996.69
2023-04-04T04:38:55.548Z,94993.66
2023-04-04T04:41:23.795Z,94994.56
2023-04-04T04:43:53.541Z,95001.34
2023-04-04T04:46:24.796Z,95001.47
2023-04-04T04:48:54.711Z,95012.69
2023-04-04T04:51:27.883Z,95002.94
2023-04-04T04:53:57.936Z,95011.63
2023-04-04T04:56:27.536Z,94997.22
2023-04-04T04:59:00.562Z,95004.84
2023-04-04T05:01:29.323Z,95006.97
2023-04-04T05:04:00.285Z,95018.00
2023-04-04T05:06:38.199Z,95012.34
2023-04-04T05:09:08.460Z,95014.81
2023-04-04T05:11:38.788Z,95015.97
2023-04-04T05:14:09.184Z,95013.56
2023-04-04T05:16:45.120Z,95011.97
2023-04-04T05:19:15.753Z,95013.94
2023-04-04T05:21:49.084Z,95012.22
2023-04-04T05:24:28.645Z,95012.16
2023-04-04T05:26:57.575Z,95017.44
2023-04-04T05:29:25.509Z,95018.66
2023-04-04T05:31:54.263Z,95024.72
2023-04-04T05:34:25.612Z,95028.28
2023-04-04T05:36:54.093Z,95034.53
2023-04-04T05:39:22.237Z,95035.13
2023-04-04T05:42:01.510Z,95030.63
2023-04-04T05:44:33.550Z,95036.13
2023-04-04T05:47:01.501Z,95038.44
2023-04-04T05:49:30.886Z,95036.41
2023-04-04T05:52:01.273Z,95040.78
2023-04-04T05:54:30.930Z,95038.81
2023-04-04T05:57:02.191Z,95043.00
2023-04-04T05:59:53.027Z,95056.44
2023-04-04T06:02:21.392Z,95057.59
2023-04-04T06:04:55.902Z,95062.75
2023-04-04T06:07:31.962Z,95060.88
2023-04-04T06:09:59.875Z,95059.63
2023-04-04T06:12:27.791Z,95055.94
2023-04-04T06:14:55.986Z,95055.13
2023-04-04T06:17:25.353Z,95056.97
2023-04-04T06:19:55.629Z,95054.41
2023-04-04T06:22:24.364Z,95069.78
2023-04-04T06:24:54.975Z,95069.06
2023-04-04T06:27:24.376Z,95061.59
2023-04-04T06:29:52.622Z,95056.63
2023-04-04T06:32:23.035Z,95058.94
2023-04-04T06:34:51.118Z,95061.84
2023-04-04T06:37:29.678Z,95070.66
2023-04-04T06:40:09.666Z,95065.66
2023-04-04T06:42:37.973Z,95066.16
2023-04-04T06:45:07.373Z,95069.50
2023-04-04T06:47:36.000Z,95068.88
2023-04-04T06:50:04.050Z,95066.47
2023-04-04T06:52:33.452Z,95078.72
2023-04-04T06:55:03.409Z,95067.81
2023-04-04T06:57:32.029Z,95065.28
2023-04-04T06:59:59.959Z,95067.88
2023-04-04T07:02:28.054Z,95056.56
2023-04-04T07:04:56.157Z,95068.75
2023-04-04T07:07:24.650Z,95070.59
2023-04-04T07:09:53.941Z,95069.94
2023-04-04T07:12:21.887Z,95072.34
2023-04-04T07:14:49.836Z,95076.56
2023-04-04T07:17:24.592Z,95069.00
2023-04-04T07:19:53.403Z,95060.41
2023-04-04T07:22:21.562Z,95077.50
2023-04-04T07:24:49.540Z,95067.69
2023-04-04T07:27:18.839Z,95075.19
2023-04-04T07:29:46.812Z,95071.13
2023-04-04T07:32:14.764Z,95078.41
2023-04-04T07:34:42.902Z,95067.47
2023-04-04T07:37:10.779Z,95078.38
2023-04-04T07:39:38.731Z,95080.88
2023-04-04T07:42:06.964Z,95077.13
2023-04-04T07:44:36.406Z,95081.03
2023-04-04T07:47:09.998Z,95077.19
2023-04-04T07:49:38.554Z,95071.16
2023-04-04T07:52:06.568Z,95074.91
2023-04-04T07:54:34.533Z,95070.69
2023-04-04T07:57:05.501Z,95071.84
2023-04-04T07:59:33.587Z,95063.66
2023-04-04T08:02:02.864Z,95078.16
2023-04-04T08:04:30.981Z,95077.00
2023-04-04T08:06:58.970Z,95068.75
2023-04-04T08:09:31.259Z,95069.22
2023-04-04T08:11:59.292Z,95074.94
2023-04-04T08:14:27.204Z,95072.84
2023-04-04T08:16:55.147Z,95071.25
2023-04-04T08:19:24.506Z,95075.53
2023-04-04T08:21:52.629Z,95079.97
2023-04-04T08:24:22.406Z,95077.91
2023-04-04T08:26:58.276Z,95078.56
2023-04-04T08:29:33.067Z,95077.66
2023-04-04T08:32:01.727Z,95088.19
2023-04-04T08:34:31.068Z,95089.44
2023-04-04T08:36:59.992Z,95089.47
2023-04-04T08:39:28.268Z,95086.56
2023-04-04T08:42:02.746Z,95109.56
2023-04-04T08:44:31.769Z,95100.00
2023-04-04T08:47:01.232Z,95102.13
2023-04-04T08:49:33.126Z,95095.25
2023-04-04T08:52:02.782Z,95095.63
2023-04-04T08:54:32.993Z,95103.56
2023-04-04T08:57:01.764Z,95096.09
2023-04-04T08:59:29.870Z,95110.47
2023-04-04T09:02:05.615Z,95108.69
2023-04-04T09:04:35.143Z,95107.56
2023-04-04T09:07:05.282Z,95107.34
2023-04-04T09:09:33.502Z,95102.13
2023-04-04T09:12:02.469Z,95107.97
2023-04-04T09:14:31.919Z,95100.13
2023-04-04T09:17:00.104Z,95102.78
2023-04-04T09:19:28.464Z,95106.41
2023-04-04T09:21:57.988Z,95105.81
2023-04-04T09:24:26.500Z,95108.28
2023-04-04T09:26:57.210Z,95117.88
2023-04-04T09:29:25.116Z,95123.44
2023-04-04T09:31:53.130Z,95124.19
2023-04-04T09:34:21.671Z,95122.69
2023-04-04T09:36:49.712Z,95114.47
2023-04-04T09:39:23.189Z,95117.50
2023-04-04T09:41:51.343Z,95128.41
2023-04-04T09:44:19.594Z,95115.25
2023-04-04T09:46:52.206Z,95126.09
2023-04-04T09:49:23.437Z,95133.66
2023-04-04T09:51:54.886Z,95130.06
2023-04-04T09:54:29.550Z,95127.31
2023-04-04T09:56:57.993Z,95121.69
2023-04-04T09:59:26.112Z,95139.03
2023-04-04T10:01:55.951Z,95136.13
2023-04-04T10:04:27.222Z,95127.66
2023-04-04T10:06:55.949Z,95139.50
2023-04-04T10:09:26.025Z,95134.16
2023-04-04T10:12:09.595Z,95125.28
2023-04-04T10:14:37.863Z,95140.50
2023-04-04T10:17:10.436Z,95128.16
2023-04-04T10:19:39.452Z,95131.34
2023-04-04T10:22:07.413Z,95117.94
2023-04-04T10:24:36.812Z,95126.50
2023-04-04T10:27:04.850Z,95138.09
2023-04-04T10:29:32.750Z,95133.75
2023-04-04T10:32:06.685Z,95136.13
2023-04-04T10:34:44.190Z,95137.13
2023-04-04T10:37:16.717Z,95134.50
2023-04-04T10:39:53.369Z,95138.94
2023-04-04T10:42:21.752Z,95140.53
2023-04-04T10:44:49.696Z,95136.50
2023-04-04T10:47:22.007Z,95134.50
2023-04-04T10:49:51.146Z,95137.69
2023-04-04T10:52:21.183Z,95136.09
2023-04-04T10:54:52.356Z,95139.06
2023-04-04T10:57:21.333Z,95140.09
2023-04-04T10:59:59.090Z,95130.50
2023-04-04T11:02:45.558Z,95139.28
2023-04-04T11:05:16.429Z,95136.47
2023-04-04T11:07:57.268Z,95132.91
2023-04-04T11:10:37.687Z,95134.28
2023-04-04T11:13:14.009Z,95142.50
2023-04-04T11:15:55.958Z,95135.72
2023-04-04T11:18:45.683Z,95135.28
2023-04-04T11:21:16.679Z,95133.28
2023-04-04T11:24:14.716Z,95121.72
2023-04-04T11:26:45.648Z,95129.66
2023-04-04T11:29:25.062Z,95120.00
2023-04-04T11:31:53.324Z,95126.72
2023-04-04T11:34:34.101Z,95128.34
2023-04-04T11:37:17.674Z,95128.44
2023-04-04T11:39:56.597Z,95118.06
2023-04-04T11:42:25.997Z,95118.59
2023-04-04T11:45:04.846Z,95119.69
2023-04-04T11:47:33.028Z,95116.09
2023-04-04T11:50:02.443Z,95123.34
2023-04-04T11:52:35.092Z,95112.94
2023-04-04T11:55:03.252Z,95116.88
2023-04-04T11:57:34.388Z,95117.56
2023-04-04T12:00:06.164Z,95118.50
2023-04-04T12:02:38.069Z,95114.75
2023-04-04T12:05:07.196Z,95114.28
2023-04-04T12:07:35.756Z,95124.69
2023-04-04T12:10:04.325Z,95131.97
2023-04-04T12:12:38.073Z,95127.31
2023-04-04T12:15:16.903Z,95116.56
2023-04-04T12:17:49.138Z,95117.56
2023-04-04T12:20:17.920Z,95122.19
2023-04-04T12:22:50.720Z,95116.28
2023-04-04T12:25:20.998Z,95124.34
2023-04-04T12:27:51.691Z,95115.09
2023-04-04T12:30:20.367Z,95128.31
2023-04-04T12:32:50.143Z,95126.69
2023-04-04T12:35:18.764Z,95124.63
2023-04-04T12:37:59.278Z,95127.56
2023-04-04T12:40:31.345Z,95120.56
2023-04-04T12:43:00.996Z,95128.06
2023-04-04T12:45:29.763Z,95132.44
2023-04-04T12:47:58.605Z,95126.22
2023-04-04T12:50:28.534Z,95128.50
2023-04-04T12:53:13.369Z,95125.63
2023-04-04T12:55:47.773Z,95129.66
2023-04-04T12:58:18.788Z,95136.53
2023-04-04T13:00:47.032Z,95124.53
2023-04-04T13:03:16.349Z,95129.75
2023-04-04T13:05:45.189Z,95121.28
2023-04-04T13:08:13.241Z,95118.31
2023-04-04T13:11:08.095Z,95122.88
2023-04-04T13:13:40.190Z,95110.78
2023-04-04T13:16:09.797Z,95107.81
2023-04-04T13:18:39.278Z,95105.88
2023-04-04T13:21:08.580Z,95102.16
2023-04-04T13:23:39.318Z,95100.69
2023-04-04T13:26:09.734Z,95099.31
2023-04-04T13:28:39.103Z,95096.31
2023-04-04T13:31:08.426Z,95094.00
2023-04-04T13:33:36.730Z,95099.81
2023-04-04T13:36:05.137Z,95108.22
2023-04-04T13:38:33.682Z,95096.91
2023-04-04T13:41:02.017Z,95090.53
2023-04-04T13:43:29.926Z,95100.44
2023-04-04T13:45:59.235Z,95100.75
2023-04-04T13:48:27.699Z,95095.78
2023-04-04T13:50:55.933Z,95099.28
2023-04-04T13:53:23.848Z,95102.22
2023-04-04T13:56:16.186Z,95090.81
2023-04-04T13:58:40.565Z,95099.38
2023-04-04T14:01:10.042Z,95093.88
2023-04-04T14:03:38.334Z,95080.63
2023-04-04T14:06:10.746Z,95088.47
2023-04-04T14:08:39.841Z,95081.66
2023-04-04T14:11:08.221Z,95085.66
2023-04-04T14:13:36.447Z,95087.81
2023-04-04T14:16:04.760Z,95083.59
2023-04-04T14:18:34.553Z,95085.56
2023-04-04T14:21:03.033Z,95080.56
2023-04-04T14:23:31.617Z,95077.59
2023-04-04T14:25:59.603Z,95082.72
2023-04-04T14:28:28.045Z,95086.00
2023-04-04T14:30:56.296Z,95081.22
2023-04-04T14:33:24.210Z,95081.81
2023-04-04T14:35:53.504Z,95071.13
2023-04-04T14:38:21.413Z,95087.72
2023-04-04T14:40:49.585Z,95062.81
2023-04-04T14:43:17.460Z,95055.72
2023-04-04T14:45:45.349Z,95059.28
2023-04-04T14:48:13.261Z,95081.41
2023-04-04T14:50:42.845Z,95066.00
2023-04-04T14:53:12.293Z,95059.44
2023-04-04T14:55:40.454Z,95068.03
2023-04-04T14:58:08.596Z,95069.19
2023-04-04T15:00:36.542Z,95059.69
2023-04-04T15:03:07.229Z,95070.16
2023-04-04T15:05:35.451Z,95066.59
2023-04-04T15:08:03.445Z,95054.81
2023-04-04T15:10:32.867Z,95062.47
2023-04-04T15:13:00.862Z,95066.06
2023-04-04T15:15:30.054Z,95059.59
2023-04-04T15:17:58.301Z,95057.41
2023-04-04T15:20:26.275Z,95058.94
2023-04-04T15:22:54.520Z,95065.59
2023-04-04T15:25:22.531Z,95067.59
2023-04-04T15:27:51.854Z,95059.19
2023-04-04T15:30:19.891Z,95058.28
2023-04-04T15:32:48.004Z,95069.28
2023-04-04T15:35:20.713Z,95065.38
2023-04-04T15:37:49.184Z,95069.94
2023-04-04T15:40:17.678Z,95060.09
2023-04-04T15:42:46.724Z,95063.63
2023-04-04T15:45:16.394Z,95052.00
2023-04-04T15:47:45.146Z,95058.56
2023-04-04T15:50:13.475Z,95054.19
2023-04-04T15:52:41.818Z,95051.72
2023-04-04T15:55:12.948Z,95059.56
2023-04-04T15:57:42.724Z,95055.47
2023-04-04T16:00:11.988Z,95062.75
2023-04-04T16:02:41.590Z,95068.44
2023-04-04T16:05:09.907Z,95056.66
2023-04-04T16:07:37.920Z,95050.72
2023-04-04T16:10:06.956Z,95052.38
2023-04-04T16:12:34.903Z,95059.56
2023-04-04T16:15:03.142Z,95058.75
2023-04-04T16:17:33.221Z,95068.03
2023-04-04T16:20:02.783Z,95068.63
2023-04-04T16:22:30.765Z,95060.88
2023-04-04T16:24:58.697Z,95060.47
2023-04-04T16:27:27.181Z,95064.16
2023-04-04T16:29:55.542Z,95066.97
2023-04-04T16:32:23.498Z,95061.69
2023-04-04T16:34:51.423Z,95054.53
2023-04-04T16:37:20.725Z,95058.19
2023-04-04T16:39:49.122Z,95063.03
2023-04-04T16:42:19.538Z,95061.78
2023-04-04T16:44:47.932Z,95052.47
2023-04-04T16:47:15.927Z,95053.84
2023-04-04T16:49:43.838Z,95067.88
2023-04-04T16:52:11.806Z,95065.81
2023-04-04T16:54:41.336Z,95067.16
2023-04-04T16:57:09.351Z,95059.22
2023-04-04T16:59:37.803Z,95059.50
2023-04-04T17:02:07.915Z,95060.06
2023-04-04T17:04:36.996Z,95062.53
2023-04-04T17:07:06.176Z,95063.22
2023-04-04T17:09:35.709Z,95069.81
2023-04-04T17:12:05.449Z,95069.56
2023-04-04T17:14:33.469Z,95071.88
2023-04-04T17:17:01.442Z,95072.03
2023-04-04T17:19:30.377Z,95062.03
2023-04-04T17:21:58.601Z,95074.75
2023-04-04T17:24:27.411Z,95077.81
2023-04-04T17:26:57.857Z,95075.44
2023-04-04T17:29:27.692Z,95078.50
2023-04-04T17:31:56.199Z,95085.91
2023-04-04T17:34:24.690Z,95087.72
2023-04-04T17:36:52.842Z,95089.66
2023-04-04T17:39:20.861Z,95101.13
2023-04-04T17:41:48.857Z,95090.25
2023-04-04T17:44:17.083Z,95089.66
2023-04-04T17:46:46.681Z,95107.06
2023-04-04T17:49:19.462Z,95096.16
2023-04-04T17:51:48.680Z,95095.81
2023-04-04T17:54:17.498Z,95101.69
2023-04-04T17:56:46.944Z,95100.97
2023-04-04T17:59:15.869Z,95097.78
2023-04-04T18:01:44.334Z,95099.66
2023-04-04T18:04:13.805Z,95102.72
2023-04-04T18:06:42.089Z,95100.13
2023-04-04T18:09:10.531Z,95098.53
2023-04-04T18:11:40.036Z,95101.22
2023-04-04T18:14:08.761Z,95108.63
2023-04-04T18:16:40.377Z,95112.97
2023-04-04T18:19:09.497Z,95109.03
2023-04-04T18:21:39.092Z,95111.34
2023-04-04T18:24:11.105Z,95113.63
2023-04-04T18:26:39.356Z,95114.19
2023-04-04T18:29:07.638Z,95119.19
2023-04-04T18:31:36.016Z,95121.38
2023-04-04T18:34:04.058Z,95128.59
2023-04-04T18:36:32.402Z,95141.47
2023-04-04T18:39:02.024Z,95144.09
2023-04-04T18:41:30.116Z,95144.00
2023-04-04T18:43:58.086Z,95143.34
2023-04-04T18:46:26.007Z,95150.84
2023-04-04T18:48:54.086Z,95149.84
2023-04-04T18:51:23.571Z,95151.06
2023-04-04T18:53:52.029Z,95144.31
2023-04-04T18:56:21.586Z,95151.09
2023-04-04T18:58:49.772Z,95152.28
2023-04-04T19:01:17.879Z,95153.13
2023-04-04T19:03:48.274Z,95151.94
2023-04-04T19:06:16.730Z,95150.78
2023-04-04T19:08:45.629Z,95148.78
2023-04-04T19:11:14.076Z,95154.63
2023-04-04T19:13:43.426Z,95152.47
2023-04-04T19:16:11.461Z,95159.25
2023-04-04T19:18:39.366Z,95159.88
2023-04-04T19:21:08.847Z,95157.66
2023-04-04T19:23:38.193Z,95148.88
2023-04-04T19:26:07.511Z,95160.06
2023-04-04T19:28:35.659Z,95168.88
2023-04-04T19:31:10.703Z,95176.47
2023-04-04T19:33:39.165Z,95172.88
2023-04-04T19:36:09.666Z,95178.47
2023-04-04T19:38:39.204Z,95170.88
2023-04-04T19:41:12.873Z,95175.63
2023-04-04T19:43:43.140Z,95176.84
2023-04-04T19:46:14.375Z,95185.22
2023-04-04T19:48:45.090Z,95178.44
2023-04-04T19:51:51.898Z,95174.44
2023-04-04T19:54:26.530Z,95165.66
2023-04-04T19:56:59.575Z,95177.63
2023-04-04T19:59:58.774Z,95179.88
2023-04-04T20:02:50.452Z,95176.28
2023-04-04T20:06:03.514Z,95171.69
2023-04-04T20:08:38.918Z,95176.09
2023-04-04T20:11:07.884Z,95184.03
2023-04-04T20:13:37.389Z,95181.84
2023-04-04T20:16:07.806Z,95190.06
2023-04-04T20:18:37.946Z,95195.03
2023-04-04T20:21:12.338Z,95199.66
2023-04-04T20:23:48.084Z,95197.25
2023-04-04T20:26:55.523Z,95205.84
2023-04-04T20:29:26.039Z,95205.44
2023-04-04T20:31:55.864Z,95208.03
2023-04-04T20:34:45.695Z,95214.81
2023-04-04T20:37:16.121Z,95217.19
2023-04-04T20:39:50.553Z,95215.63
2023-04-04T20:42:35.312Z,95211.81
2023-04-04T20:45:37.986Z,95222.41
2023-04-04T20:48:07.872Z,95216.41
2023-04-04T20:50:47.337Z,95225.59
2023-04-04T20:53:20.279Z,95215.22
2023-04-04T20:55:50.746Z,95215.19
2023-04-04T20:58:27.277Z,95220.59
2023-04-04T21:00:56.815Z,95220.38
2023-04-04T21:03:31.563Z,95226.78
2023-04-04T21:06:04.160Z,95217.19
2023-04-04T21:08:42.332Z,95227.13
2023-04-04T21:11:12.458Z,95223.53
2023-04-04T21:13:42.414Z,95220.94
2023-04-04T21:16:12.036Z,95232.13
2023-04-04T21:18:41.655Z,95227.13
2023-04-04T21:21:12.127Z,95238.50
2023-04-04T21:23:48.406Z,95241.78
2023-04-04T21:26:33.127Z,95242.94
2023-04-04T21:29:02.461Z,95227.81
2023-04-04T21:31:36.426Z,95240.53
2023-04-04T21:34:15.675Z,95239.28
2023-04-04T21:36:44.419Z,95231.38
2023-04-04T21:39:13.978Z,95236.56
2023-04-04T21:41:44.787Z,95236.94
2023-04-04T21:44:12.669Z,95237.09
2023-04-04T21:46:42.058Z,95250.25
2023-04-04T21:49:11.200Z,95246.41
2023-04-04T21:51:39.194Z,95241.28
2023-04-04T21:54:07.432Z,95239.03
2023-04-04T21:56:35.617Z,95251.59
2023-04-04T21:59:08.171Z,95259.34
2023-04-04T22:01:37.010Z,95264.13
2023-04-04T22:04:04.992Z,95257.06
2023-04-04T22:06:32.921Z,95258.28
2023-04-04T22:09:01.700Z,95254.72
2023-04-04T22:11:30.382Z,95251.69
2023-04-04T22:14:04.494Z,95245.66
2023-04-04T22:16:37.086Z,95255.75
2023-04-04T22:19:05.640Z,95259.84
2023-04-04T22:21:36.863Z,95249.06
2023-04-04T22:24:06.422Z,95252.66
2023-04-04T22:26:34.626Z,95261.03
2023-04-04T22:29:05.374Z,95257.47
2023-04-04T22:31:35.256Z,95264.69
2023-04-04T22:34:04.075Z,95266.88
2023-04-04T22:36:34.489Z,95257.53
2023-04-04T22:39:02.933Z,95257.91
2023-04-04T22:41:31.302Z,95258.31
2023-04-04T22:43:59.419Z,95260.72
2023-04-04T22:46:29.294Z,95259.13
2023-04-04T22:49:06.633Z,95257.53
2023-04-04T22:51:43.297Z,95253.53
2023-04-04T22:54:13.050Z,95253.88
2023-04-04T22:56:41.814Z,95265.25
2023-04-04T22:59:09.933Z,95263.81
2023-04-04T23:01:38.070Z,95259.72
2023-04-04T23:04:07.776Z,95270.53
2023-04-04T23:06:36.341Z,95263.38
2023-04-04T23:09:04.388Z,95273.38
2023-04-04T23:11:32.372Z,95268.81
2023-04-04T23:14:00.550Z,95264.38
2023-04-04T23:16:28.971Z,95268.94
2023-04-04T23:18:57.281Z,95265.97
2023-04-04T23:21:26.630Z,95270.28
2023-04-04T23:23:54.556Z,95266.38
2023-04-04T23:26:22.461Z,95264.03
2023-04-04T23:28:51.688Z,95283.41
2023-04-04T23:31:20.467Z,95274.84
2023-04-04T23:33:48.433Z,95271.88
2023-04-04T23:36:16.533Z,95267.78
2023-04-04T23:38:46.167Z,95268.38
2023-04-04T23:41:14.270Z,95267.88
2023-04-04T23:43:43.251Z,95271.75
2023-04-04T23:46:14.603Z,95263.44
2023-04-04T23:48:42.657Z,95264.31
2023-04-04T23:51:11.002Z,95257.16
2023-04-04T23:53:39.097Z,95265.91
2023-04-04T23:56:09.038Z,95270.84
2023-04-04T23:58:38.285Z,95271.47
